Time;durP1;ratioP1;P1;durP2;ratioP2;P2;SDS_P1;SDS_P2;PMS_P1;PMS_P2;Temp;Humidity;BMP_temperature;BMP_pressure;BME280_temperature;BME280_humidity;BME280_pressure;Samples;Min_cycle;Max_cycle;Signal;HPM_P1;HPM_P2
2021/09/08 00:02:09;;;;;;;28.15;13.35;;;;;;;10.34;85.53;95492.19;1698675;83;21150;-60
2021/09/08 00:04:36;;;;;;;18.77;12.45;;;;;;;10.31;85.74;95499.31;1690219;83;21071;-60
2021/09/08 00:07:03;;;;;;;33.60;12.03;;;;;;;10.31;85.77;95508.17;1704172;83;21154;-60
2021/09/08 00:09:30;;;;;;;23.27;11.20;;;;;;;10.32;85.91;95499.48;1706277;83;21056;-60
2021/09/08 00:11:57;;;;;;;17.57;10.32;;;;;;;10.34;85.86;95505.94;1687386;83;20952;-61
2021/09/08 00:14:24;;;;;;;14.00;8.95;;;;;;;10.36;86.17;95513.92;1709623;83;21110;-61
2021/09/08 00:16:53;;;;;;;23.40;13.20;;;;;;;10.35;85.94;95511.61;1694895;83;21048;-60
2021/09/08 00:19:19;;;;;;;28.92;13.48;;;;;;;10.25;85.60;95512.61;1698932;83;20950;-61
2021/09/08 00:21:46;;;;;;;26.07;12.95;;;;;;;10.15;85.76;95509.50;1709379;83;21588;-60
2021/09/08 00:24:13;;;;;;;27.13;13.95;;;;;;;10.11;85.92;95519.20;1698094;83;20940;-62
2021/09/08 00:26:40;;;;;;;28.62;14.55;;;;;;;10.09;86.19;95518.06;1701522;83;21119;-61
2021/09/08 00:29:07;;;;;;;33.45;15.98;;;;;;;10.07;86.24;95521.25;1700041;83;20965;-61
2021/09/08 00:31:35;;;;;;;36.45;12.35;;;;;;;10.09;86.14;95526.31;1695492;83;21448;-61
2021/09/08 00:34:03;;;;;;;37.60;14.80;;;;;;;10.09;85.97;95521.59;1693561;83;21056;-61
2021/09/08 00:36:30;;;;;;;35.33;14.60;;;;;;;10.10;86.04;95519.61;1712734;83;21091;-61
2021/09/08 00:38:57;;;;;;;36.40;16.65;;;;;;;10.09;85.76;95527.69;1712799;83;21145;-60
2021/09/08 00:41:23;;;;;;;31.25;16.40;;;;;;;10.05;85.55;95529.15;1694069;82;21017;-60
2021/09/08 00:43:50;;;;;;;34.75;14.85;;;;;;;10.02;85.38;95529.97;1705812;83;21484;-61
2021/09/08 00:46:17;;;;;;;39.03;16.48;;;;;;;9.98;85.64;95527.87;1702357;83;21139;-61
2021/09/08 00:48:45;;;;;;;32.38;15.23;;;;;;;9.98;86.06;95528.48;1693571;83;21033;-60
2021/09/08 00:51:13;;;;;;;28.95;13.93;;;;;;;9.99;86.36;95530.03;1692041;83;21172;-60
2021/09/08 00:53:40;;;;;;;26.75;13.70;;;;;;;9.99;86.15;95531.41;1704238;83;21120;-60
2021/09/08 00:56:08;;;;;;;24.95;13.25;;;;;;;9.93;85.64;95534.46;1700814;83;20964;-60
2021/09/08 00:58:35;;;;;;;25.23;13.15;;;;;;;9.87;85.34;95537.53;1691720;83;21016;-60
2021/09/08 01:01:01;;;;;;;29.45;12.35;;;;;;;9.80;85.24;95534.33;1700392;83;21005;-61
2021/09/08 01:03:29;;;;;;;27.48;12.23;;;;;;;9.71;85.14;95543.74;1702620;83;21100;-61
2021/09/08 01:05:56;;;;;;;16.23;11.10;;;;;;;9.68;85.22;95539.68;1708573;83;21199;-61
2021/09/08 01:08:25;;;;;;;26.82;12.33;;;;;;;9.63;85.26;95536.81;1700249;83;21135;-61
2021/09/08 01:10:55;;;;;;;20.50;12.40;;;;;;;9.63;85.28;95536.05;1696189;83;21559;-61
2021/09/08 01:13:22;;;;;;;27.67;11.03;;;;;;;9.61;85.48;95529.59;1694598;83;21516;-60
2021/09/08 01:16:05;;;;;;;16.90;10.95;;;;;;;9.62;85.19;95533.13;1696984;83;21096;-60
2021/09/08 01:18:33;;;;;;;19.50;12.20;;;;;;;9.55;84.88;95535.41;1707499;83;21128;-60
2021/09/08 01:21:02;;;;;;;28.23;13.83;;;;;;;9.53;85.11;95535.64;1693458;83;21594;-61
2021/09/08 01:23:30;;;;;;;33.65;16.93;;;;;;;9.53;85.24;95538.39;1696633;83;21116;-60
2021/09/08 01:25:59;;;;;;;37.55;16.52;;;;;;;9.53;85.39;95538.39;1702496;83;21436;-61
2021/09/08 01:28:25;;;;;;;32.28;16.77;;;;;;;9.52;85.77;95532.72;1708889;83;21088;-61
2021/09/08 01:30:56;;;;;;;34.58;17.32;;;;;;;9.53;85.83;95537.81;1691267;83;20977;-61
2021/09/08 01:33:22;;;;;;;29.85;13.10;;;;;;;9.54;85.85;95535.23;1697608;83;21016;-61
2021/09/08 01:35:49;;;;;;;21.82;12.80;;;;;;;9.49;85.36;95529.45;1707650;83;20980;-61
2021/09/08 01:38:16;;;;;;;32.78;13.88;;;;;;;9.42;85.18;95529.59;1702887;83;20952;-61
2021/09/08 01:40:43;;;;;;;27.90;12.73;;;;;;;9.33;85.14;95522.48;1704547;82;21107;-62
2021/09/08 01:43:10;;;;;;;32.88;13.83;;;;;;;9.26;85.29;95526.74;1687075;83;21524;-61
2021/09/08 01:45:41;;;;;;;28.80;14.23;;;;;;;9.21;85.38;95524.48;1694711;83;20981;-61
2021/09/08 01:48:08;;;;;;;23.02;13.15;;;;;;;9.19;85.59;95529.59;1696696;83;20981;-61
2021/09/08 01:50:35;;;;;;;32.17;15.00;;;;;;;9.20;85.55;95526.45;1699401;83;21024;-61
2021/09/08 01:53:02;;;;;;;40.25;13.28;;;;;;;9.19;85.67;95525.48;1709005;83;21193;-61
2021/09/08 01:55:29;;;;;;;20.97;11.48;;;;;;;9.18;85.51;95532.16;1706173;83;20992;-61
2021/09/08 01:57:56;;;;;;;26.25;12.63;;;;;;;9.17;85.38;95531.98;1692826;83;21448;-62
2021/09/08 02:00:23;;;;;;;28.92;12.43;;;;;;;9.14;85.04;95532.83;1698418;83;21524;-61
2021/09/08 02:02:50;;;;;;;18.62;12.07;;;;;;;9.12;85.03;95536.59;1693259;83;21126;-59
2021/09/08 02:05:17;;;;;;;22.35;11.95;;;;;;;9.10;85.08;95539.74;1696403;83;21134;-60
2021/09/08 02:07:44;;;;;;;18.62;12.00;;;;;;;9.07;84.92;95542.56;1691248;83;20960;-60
2021/09/08 02:10:11;;;;;;;21.80;11.50;;;;;;;9.01;85.04;95544.22;1704217;83;21039;-61
2021/09/08 02:12:42;;;;;;;18.30;11.30;;;;;;;9.00;84.73;95550.90;1699091;83;20996;-60
2021/09/08 02:15:10;;;;;;;19.02;12.05;;;;;;;8.94;84.83;95549.84;1696453;83;21024;-60
2021/09/08 02:17:38;;;;;;;19.65;11.30;;;;;;;8.93;85.08;95541.42;1708460;83;21270;-61
2021/09/08 02:20:08;;;;;;;23.15;11.93;;;;;;;8.90;85.01;95550.49;1690187;83;21579;-61
2021/09/08 02:22:34;;;;;;;18.65;12.10;;;;;;;8.86;85.14;95549.78;1690258;83;21064;-60
2021/09/08 02:25:01;;;;;;;21.73;11.63;;;;;;;8.82;85.15;95549.04;1703062;83;21504;-62
2021/09/08 02:27:28;;;;;;;18.00;11.28;;;;;;;8.79;85.28;95540.89;1695972;83;20957;-61
2021/09/08 02:29:54;;;;;;;17.55;11.03;;;;;;;8.81;85.50;95547.48;1687500;83;21790;-60
2021/09/08 02:32:21;;;;;;;17.70;10.55;;;;;;;8.84;85.58;95539.80;1699281;83;20957;-60
2021/09/08 02:34:49;;;;;;;19.50;11.80;;;;;;;8.85;85.38;95547.44;1697320;83;20998;-61
2021/09/08 02:37:16;;;;;;;19.92;10.58;;;;;;;8.82;85.24;95553.77;1699492;83;21094;-60
2021/09/08 02:39:44;;;;;;;21.52;10.95;;;;;;;8.80;85.32;95552.80;1699852;83;21009;-61
2021/09/08 02:42:11;;;;;;;19.05;9.43;;;;;;;8.84;85.29;95555.49;1694791;83;21150;-61
2021/09/08 02:44:37;;;;;;;16.12;10.03;;;;;;;8.83;85.21;95555.31;1694199;83;21177;-60
2021/09/08 02:47:06;;;;;;;18.87;10.55;;;;;;;8.82;85.10;95555.14;1703314;83;21067;-60
2021/09/08 02:49:34;;;;;;;18.85;10.63;;;;;;;8.78;85.20;95554.42;1696801;83;21532;-61
2021/09/08 02:52:01;;;;;;;21.12;10.93;;;;;;;8.77;85.16;95548.14;1707947;83;21053;-60
2021/09/08 02:54:28;;;;;;;19.27;10.03;;;;;;;8.76;84.87;95546.59;1696517;83;21925;-61
2021/09/08 02:56:56;;;;;;;20.62;11.43;;;;;;;8.71;84.81;95549.81;1692603;83;20976;-61
2021/09/08 02:59:23;;;;;;;19.35;11.50;;;;;;;8.63;84.68;95545.61;1688063;83;21541;-61
2021/09/08 03:01:49;;;;;;;20.92;12.63;;;;;;;8.56;84.90;95542.98;1689035;83;21027;-60
2021/09/08 03:04:16;;;;;;;18.75;11.30;;;;;;;8.53;84.95;95545.20;1703269;83;21465;-60
2021/09/08 03:06:42;;;;;;;22.95;11.57;;;;;;;8.51;85.12;95542.67;1705734;83;21100;-61
2021/09/08 03:09:09;;;;;;;15.83;9.78;;;;;;;8.49;85.10;95545.06;1700795;83;20965;-61
2021/09/08 03:11:35;;;;;;;21.37;11.78;;;;;;;8.47;84.86;95542.72;1698417;83;21610;-61
2021/09/08 03:14:02;;;;;;;17.12;10.55;;;;;;;8.48;84.76;95544.88;1698835;83;21245;-61
2021/09/08 03:16:30;;;;;;;18.40;10.28;;;;;;;8.49;84.76;95543.11;1706028;83;21059;-61
2021/09/08 03:18:58;;;;;;;16.65;10.43;;;;;;;8.50;84.69;95545.23;1713121;83;21082;-60
2021/09/08 03:21:25;;;;;;;17.15;11.33;;;;;;;8.52;84.49;95545.59;1699754;83;20961;-61
2021/09/08 03:23:52;;;;;;;19.62;10.90;;;;;;;8.49;84.53;95549.96;1686529;83;20993;-60
2021/09/08 03:26:19;;;;;;;25.48;12.28;;;;;;;8.44;84.73;95550.41;1695153;83;21166;-61
2021/09/08 03:28:45;;;;;;;18.77;11.50;;;;;;;8.37;84.69;95551.89;1707841;83;21000;-61
2021/09/08 03:31:12;;;;;;;23.47;11.63;;;;;;;8.26;84.88;95549.87;1693531;83;21929;-61
2021/09/08 03:33:39;;;;;;;25.68;12.75;;;;;;;8.18;85.17;95549.80;1700127;83;21118;-62
2021/09/08 03:36:06;;;;;;;23.00;12.50;;;;;;;8.13;85.38;95554.34;1694357;83;20973;-62
2021/09/08 03:38:32;;;;;;;25.50;12.75;;;;;;;8.10;85.47;95555.14;1700081;83;21528;-61
2021/09/08 03:40:59;;;;;;;25.05;13.70;;;;;;;8.12;85.60;95555.53;1708084;82;21040;-60
2021/09/08 03:43:25;;;;;;;27.98;12.78;;;;;;;8.14;85.70;95553.73;1700367;83;21762;-60
2021/09/08 03:45:54;;;;;;;26.35;11.95;;;;;;;8.14;85.46;95557.27;1706347;83;21068;-61
2021/09/08 03:48:20;;;;;;;24.98;12.63;;;;;;;8.12;85.20;95553.38;1698084;83;21555;-62
2021/09/08 03:50:47;;;;;;;22.45;12.70;;;;;;;8.08;85.05;95552.05;1683460;83;21083;-61
2021/09/08 03:53:14;;;;;;;22.80;11.35;;;;;;;8.07;85.20;95555.97;1692154;83;21194;-60
2021/09/08 03:55:42;;;;;;;30.17;11.83;;;;;;;8.05;85.33;95556.98;1683583;83;21202;-61
2021/09/08 03:58:08;;;;;;;20.62;12.05;;;;;;;8.05;85.32;95554.24;1688238;83;20973;-62
2021/09/08 04:00:36;;;;;;;27.37;12.50;;;;;;;8.07;85.48;95562.06;1694725;83;20993;-61
2021/09/08 04:03:02;;;;;;;30.25;12.55;;;;;;;8.02;85.44;95559.17;1686355;83;21021;-61
2021/09/08 04:05:31;;;;;;;33.38;12.65;;;;;;;8.00;85.59;95558.02;1695035;83;21099;-61
2021/09/08 04:07:57;;;;;;;29.70;11.57;;;;;;;7.96;85.52;95560.03;1698682;84;21178;-61
2021/09/08 04:10:24;;;;;;;24.67;11.48;;;;;;;7.87;85.40;95556.42;1700461;83;21020;-60
2021/09/08 04:12:51;;;;;;;26.42;11.80;;;;;;;7.79;85.55;95556.34;1698482;83;21049;-61
2021/09/08 04:15:19;;;;;;;30.68;11.40;;;;;;;7.79;85.62;95565.92;1693913;83;21124;-61
2021/09/08 04:17:46;;;;;;;32.33;12.25;;;;;;;7.77;85.73;95564.19;1692359;83;20964;-61
2021/09/08 04:20:14;;;;;;;33.65;12.73;;;;;;;7.80;85.80;95563.95;1700905;83;21139;-60
2021/09/08 04:22:41;;;;;;;32.13;12.40;;;;;;;7.83;85.79;95570.77;1700087;83;21112;-61
2021/09/08 04:25:09;;;;;;;31.23;12.00;;;;;;;7.88;85.95;95565.44;1702313;83;21444;-60
2021/09/08 04:27:36;;;;;;;28.00;10.93;;;;;;;7.99;86.19;95573.70;1694250;83;21432;-61
2021/09/08 04:30:04;;;;;;;28.05;11.38;;;;;;;8.09;86.13;95572.78;1696824;83;20965;-60
2021/09/08 04:32:31;;;;;;;50.52;14.55;;;;;;;8.11;85.78;95569.03;1695926;83;21860;-61
2021/09/08 04:34:57;;;;;;;24.60;11.93;;;;;;;8.09;85.89;95574.14;1688506;83;20992;-60
2021/09/08 04:37:24;;;;;;;32.60;13.93;;;;;;;8.11;85.98;95575.12;1695009;83;21019;-60
2021/09/08 04:39:51;;;;;;;44.27;13.13;;;;;;;8.10;85.99;95579.05;1691476;83;20977;-61
2021/09/08 04:42:18;;;;;;;26.93;12.35;;;;;;;8.09;85.97;95582.37;1684726;83;21068;-61
2021/09/08 04:44:44;;;;;;;28.27;12.07;;;;;;;8.08;86.30;95580.82;1695258;83;21146;-61
2021/09/08 04:47:11;;;;;;;37.98;13.50;;;;;;;8.08;86.34;95583.55;1689856;83;21022;-61
2021/09/08 04:49:38;;;;;;;35.08;13.72;;;;;;;8.06;86.38;95580.45;1698549;83;21106;-61
2021/09/08 04:52:05;;;;;;;33.73;12.68;;;;;;;8.05;86.57;95580.27;1703515;83;21017;-61
2021/09/08 04:54:32;;;;;;;36.60;14.03;;;;;;;8.12;86.73;95585.69;1691352;83;21005;-61
2021/09/08 04:56:58;;;;;;;45.98;13.93;;;;;;;8.15;86.74;95582.12;1689875;83;21054;-61
2021/09/08 04:59:25;;;;;;;40.15;13.93;;;;;;;8.20;86.93;95589.91;1694931;84;21572;-60
2021/09/08 05:01:52;;;;;;;19.87;12.98;;;;;;;8.23;87.07;95594.56;1702795;83;21036;-62
2021/09/08 05:04:19;;;;;;;21.85;11.20;;;;;;;8.29;87.13;95588.03;1699670;84;21094;-62
2021/09/08 05:06:46;;;;;;;23.75;11.68;;;;;;;8.32;87.04;95593.48;1692720;83;21460;-62
2021/09/08 05:09:13;;;;;;;32.15;13.18;;;;;;;8.37;87.19;95588.11;1707640;83;21121;-60
2021/09/08 05:11:40;;;;;;;28.73;12.85;;;;;;;8.44;87.53;95585.29;1699988;83;21504;-59
2021/09/08 05:14:09;;;;;;;33.05;11.20;;;;;;;8.54;87.67;95581.02;1696132;83;22077;-61
2021/09/08 05:16:36;;;;;;;40.65;13.48;;;;;;;8.62;87.39;95587.19;1705496;83;21034;-61
2021/09/08 05:19:03;;;;;;;55.00;13.25;;;;;;;8.66;87.43;95580.44;1701631;82;21146;-62
2021/09/08 05:21:32;;;;;;;28.80;12.23;;;;;;;8.78;87.73;95580.48;1680785;83;21720;-61
2021/09/08 05:23:59;;;;;;;27.07;13.15;;;;;;;8.89;87.72;95581.26;1692981;83;21084;-63
2021/09/08 05:26:26;;;;;;;27.73;12.33;;;;;;;9.02;87.64;95578.13;1687826;83;21058;-61
2021/09/08 05:28:53;;;;;;;34.03;14.13;;;;;;;9.16;87.36;95577.11;1676227;83;21052;-60
2021/09/08 05:31:21;;;;;;;33.28;14.38;;;;;;;9.29;87.31;95579.44;1694834;83;21131;-59
2021/09/08 05:33:48;;;;;;;26.80;12.53;;;;;;;9.43;86.97;95579.20;1686638;83;21179;-61
2021/09/08 05:36:15;;;;;;;44.23;13.22;;;;;;;9.54;86.66;95574.28;1676770;83;21019;-64
2021/09/08 05:38:44;;;;;;;46.13;16.52;;;;;;;9.60;86.49;95584.98;1686328;83;21643;-61
2021/09/08 05:41:12;;;;;;;30.23;17.40;;;;;;;9.63;86.31;95581.39;1677431;82;21817;-60
2021/09/08 05:43:40;;;;;;;26.17;17.23;;;;;;;9.65;86.21;95584.48;1690684;83;21053;-61
2021/09/08 05:46:07;;;;;;;18.52;12.33;;;;;;;9.67;85.88;95589.75;1684716;83;21123;-60
2021/09/08 05:48:34;;;;;;;27.82;14.85;;;;;;;9.71;86.09;95578.67;1675527;83;21009;-62
2021/09/08 05:51:01;;;;;;;39.23;15.53;;;;;;;9.81;86.57;95579.84;1677431;83;21075;-63
2021/09/08 05:53:28;;;;;;;24.25;12.63;;;;;;;9.93;86.62;95594.93;1674462;83;20982;-65
2021/09/08 05:55:55;;;;;;;26.07;12.43;;;;;;;10.02;86.58;95589.08;1672700;83;21262;-61
2021/09/08 05:58:24;;;;;;;19.12;10.88;;;;;;;10.13;86.63;95584.77;1673273;83;23198;-64
2021/09/08 06:00:51;;;;;;;18.12;10.28;;;;;;;10.24;86.29;95584.73;1685954;82;21054;-63
2021/09/08 06:03:18;;;;;;;15.30;12.43;;;;;;;10.31;85.91;95581.05;1669930;83;21641;-61
2021/09/08 06:05:46;;;;;;;22.90;12.28;;;;;;;10.38;85.38;95577.53;1683081;83;21083;-62
2021/09/08 06:08:13;;;;;;;17.48;10.15;;;;;;;10.43;84.92;95585.89;1688330;82;20990;-63
2021/09/08 06:10:39;;;;;;;17.90;9.98;;;;;;;10.50;84.72;95578.26;1670899;83;21116;-62
2021/09/08 06:13:06;;;;;;;17.37;10.60;;;;;;;10.58;84.34;95577.51;1695574;82;21608;-60
2021/09/08 06:15:35;;;;;;;28.60;11.10;;;;;;;10.69;84.04;95575.31;1685136;83;21034;-62
2021/09/08 06:18:04;;;;;;;17.92;10.38;;;;;;;10.79;83.89;95581.33;1695400;82;20987;-62
2021/09/08 06:20:31;;;;;;;12.80;8.50;;;;;;;10.90;83.54;95573.61;1686356;82;21011;-62
2021/09/08 06:22:58;;;;;;;15.90;9.15;;;;;;;10.99;82.81;95571.64;1696579;82;21042;-63
2021/09/08 06:25:25;;;;;;;19.07;14.20;;;;;;;11.10;82.41;95574.31;1687283;83;21535;-61
2021/09/08 06:27:53;;;;;;;20.37;13.38;;;;;;;11.29;82.39;95570.69;1692081;83;21129;-59
2021/09/08 06:30:20;;;;;;;18.92;10.00;;;;;;;11.44;81.86;95569.13;1689114;82;21036;-64
2021/09/08 06:32:47;;;;;;;15.85;9.95;;;;;;;11.52;81.13;95566.34;1675065;83;21084;-63
2021/09/08 06:35:13;;;;;;;58.05;16.40;;;;;;;11.58;80.66;95559.16;1688138;83;21138;-61
2021/09/08 06:37:42;;;;;;;18.95;9.73;;;;;;;11.69;80.54;95558.88;1672831;83;21594;-62
2021/09/08 06:40:12;;;;;;;12.98;8.38;;;;;;;11.80;79.99;95564.27;1677337;83;21545;-66
2021/09/08 06:42:40;;;;;;;14.25;9.85;;;;;;;11.91;79.37;95561.98;1689059;83;21550;-66
2021/09/08 06:45:08;;;;;;;14.23;9.18;;;;;;;11.97;79.02;95558.88;1689420;83;21182;-63
2021/09/08 06:47:35;;;;;;;14.13;9.38;;;;;;;12.08;79.10;95557.96;1688291;83;21335;-64
2021/09/08 06:50:03;;;;;;;28.92;11.03;;;;;;;12.19;78.61;95557.66;1650056;84;21013;-60
2021/09/08 06:52:30;;;;;;;23.87;11.10;;;;;;;12.23;78.46;95558.35;1639128;85;21051;-65
2021/09/08 06:54:57;;;;;;;27.02;10.48;;;;;;;12.38;78.44;95564.39;1679867;83;22062;-63
2021/09/08 06:57:24;;;;;;;19.12;10.38;;;;;;;12.56;78.15;95559.88;1691692;83;21034;-69
2021/09/08 06:59:51;;;;;;;13.18;8.33;;;;;;;12.71;77.75;95557.48;1680571;83;21076;-62
2021/09/08 07:02:18;;;;;;;14.87;9.45;;;;;;;12.85;77.25;95559.79;1696547;83;21064;-61
2021/09/08 07:04:45;;;;;;;16.12;9.60;;;;;;;12.94;76.97;95558.56;1684559;83;20978;-62
2021/09/08 07:07:12;;;;;;;15.88;8.55;;;;;;;13.02;76.65;95555.73;1672722;83;21057;-61
2021/09/08 07:09:40;;;;;;;18.15;9.60;;;;;;;13.09;76.26;95556.91;1649519;84;20998;-69
2021/09/08 07:12:09;;;;;;;16.15;9.30;;;;;;;13.16;76.01;95553.91;1656714;85;21216;-65
2021/09/08 07:14:37;;;;;;;22.45;9.95;;;;;;;13.23;75.85;95545.41;1686443;83;21059;-63
2021/09/08 07:17:05;;;;;;;22.52;9.83;;;;;;;13.31;75.55;95547.48;1681748;83;21436;-64
2021/09/08 07:19:33;;;;;;;19.15;10.23;;;;;;;13.41;75.36;95545.59;1680206;82;21014;-61
2021/09/08 07:22:01;;;;;;;17.32;9.43;;;;;;;13.51;75.03;95543.84;1672305;83;21109;-66
2021/09/08 07:24:27;;;;;;;17.82;8.78;;;;;;;13.63;74.58;95551.31;1682174;83;21111;-67
2021/09/08 07:26:57;;;;;;;15.93;9.43;;;;;;;13.75;73.82;95541.43;1667844;84;21083;-69
2021/09/08 07:29:25;;;;;;;22.73;10.40;;;;;;;13.90;73.40;95534.97;1680588;83;21025;-67
2021/09/08 07:31:52;;;;;;;15.63;9.18;;;;;;;14.08;72.93;95544.01;1679003;83;21142;-73
2021/09/08 07:34:19;;;;;;;13.75;9.20;;;;;;;14.20;72.00;95534.91;1694952;83;20982;-75
2021/09/08 07:36:46;;;;;;;14.45;9.15;;;;;;;14.34;71.92;95539.93;1701820;83;21105;-74
2021/09/08 07:39:14;;;;;;;18.35;7.97;;;;;;;14.45;71.23;95534.91;1649171;84;21204;-68
2021/09/08 07:41:41;;;;;;;16.75;9.98;;;;;;;14.57;70.65;95532.68;1623201;86;21135;-65
2021/09/08 07:44:08;;;;;;;19.85;8.68;;;;;;;14.68;70.34;95541.97;1645743;85;21085;-63
2021/09/08 07:46:36;;;;;;;17.60;8.38;;;;;;;14.77;69.69;95538.62;1693130;83;21049;-69
2021/09/08 07:49:03;;;;;;;12.88;7.87;;;;;;;14.92;69.65;95534.68;1629524;84;21149;-70
2021/09/08 07:51:31;;;;;;;14.58;7.92;;;;;;;15.06;68.84;95532.14;1632070;86;21087;-69
2021/09/08 07:53:59;;;;;;;11.65;7.65;;;;;;;15.19;68.33;95528.62;1626373;86;21046;-66
2021/09/08 07:56:26;;;;;;;13.35;8.40;;;;;;;15.29;68.15;95532.22;1682122;83;21061;-63
2021/09/08 07:58:53;;;;;;;11.43;7.80;;;;;;;15.40;68.29;95529.16;1699372;83;21031;-62
2021/09/08 08:01:21;;;;;;;10.75;7.55;;;;;;;15.54;67.82;95529.97;1688632;83;21853;-72
2021/09/08 08:03:48;;;;;;;11.28;7.90;;;;;;;15.66;67.42;95533.23;1687845;83;21127;-63
2021/09/08 08:06:16;;;;;;;10.75;7.53;;;;;;;15.79;66.81;95526.93;1668329;83;21044;-63
2021/09/08 08:08:43;;;;;;;13.75;7.40;;;;;;;15.92;66.75;95530.30;1687573;83;21057;-75
2021/09/08 08:11:10;;;;;;;14.73;7.67;;;;;;;16.05;66.20;95527.37;1694344;83;21913;-60
2021/09/08 08:13:38;;;;;;;10.25;7.10;;;;;;;16.16;65.66;95520.73;1687378;83;21140;-69
2021/09/08 08:16:06;;;;;;;10.75;7.60;;;;;;;16.32;65.32;95526.73;1699184;83;21129;-62
2021/09/08 08:18:33;;;;;;;8.88;6.78;;;;;;;16.47;64.35;95515.16;1677630;83;21154;-72
2021/09/08 08:21:00;;;;;;;10.15;7.55;;;;;;;16.59;63.99;95512.83;1683293;82;21131;-61
2021/09/08 08:23:27;;;;;;;12.93;8.13;;;;;;;16.68;63.49;95514.17;1692862;83;21023;-66
2021/09/08 08:25:54;;;;;;;10.15;6.95;;;;;;;16.80;62.73;95509.05;1684754;83;21250;-60
2021/09/08 08:28:20;;;;;;;11.18;7.60;;;;;;;16.93;62.83;95512.41;1672484;83;21213;-63
2021/09/08 08:30:47;;;;;;;15.45;7.97;;;;;;;17.02;62.28;95513.14;1674957;83;21066;-67
2021/09/08 08:33:14;;;;;;;13.85;7.20;;;;;;;17.15;62.03;95511.53;1696659;83;21090;-62
2021/09/08 08:35:41;;;;;;;9.53;6.45;;;;;;;17.25;62.13;95504.70;1650555;84;21022;-64
2021/09/08 08:38:08;;;;;;;11.83;7.70;;;;;;;17.36;62.00;95506.34;1649329;84;21333;-64
2021/09/08 08:40:35;;;;;;;10.38;6.87;;;;;;;17.46;61.74;95503.03;1658719;84;21701;-65
2021/09/08 08:43:01;;;;;;;16.42;7.97;;;;;;;17.56;61.28;95501.75;1673343;84;21664;-67
2021/09/08 08:45:29;;;;;;;11.25;7.33;;;;;;;17.70;61.00;95496.08;1659459;83;21246;-57
2021/09/08 08:48:00;;;;;;;10.85;5.95;;;;;;;17.86;61.58;95490.84;1656145;83;21161;-64
2021/09/08 08:50:26;;;;;;;13.80;7.12;;;;;;;18.03;60.57;95488.41;1697388;83;21216;-58
2021/09/08 08:52:55;;;;;;;9.05;6.03;;;;;;;18.22;59.35;95490.53;1659098;83;21036;-64
2021/09/08 08:55:24;;;;;;;8.90;5.62;;;;;;;18.41;58.38;95488.53;1676712;83;21097;-67
2021/09/08 08:57:51;;;;;;;7.40;5.80;;;;;;;18.61;56.23;95476.72;1694826;83;21113;-63
2021/09/08 09:00:19;;;;;;;10.32;6.12;;;;;;;18.75;55.87;95480.10;1686354;83;21480;-66
2021/09/08 09:02:52;;;;;;;8.65;5.40;;;;;;;18.88;56.06;95474.38;1681515;83;21689;-59
2021/09/08 09:05:33;;;;;;;7.78;5.75;;;;;;;19.00;56.22;95473.93;1677512;83;21075;-63
2021/09/08 09:08:00;;;;;;;12.13;7.17;;;;;;;19.15;56.19;95475.42;1687781;82;21324;-62
2021/09/08 09:10:27;;;;;;;15.15;8.80;;;;;;;19.31;55.89;95465.16;1694113;83;21006;-63
2021/09/08 09:12:54;;;;;;;7.45;5.47;;;;;;;19.47;55.24;95468.03;1699781;83;21149;-65
2021/09/08 09:15:22;;;;;;;11.45;6.42;;;;;;;19.60;54.63;95460.84;1668716;83;21330;-66
2021/09/08 09:17:49;;;;;;;11.93;5.92;;;;;;;19.76;54.35;95461.69;1697469;82;21035;-62
2021/09/08 09:20:25;;;;;;;8.95;5.53;;;;;;;19.89;54.43;95453.73;1677632;82;21027;-63
2021/09/08 09:22:55;;;;;;;8.00;5.85;;;;;;;20.01;53.94;95455.40;1682624;81;21080;-64
2021/09/08 09:25:26;;;;;;;6.92;5.10;;;;;;;20.14;53.17;95446.80;1691753;82;21035;-60
2021/09/08 09:27:55;;;;;;;13.88;10.35;;;;;;;20.28;49.45;95442.36;1662596;84;21189;-65
2021/09/08 09:30:25;;;;;;;15.50;6.25;;;;;;;20.44;47.73;95446.73;1658485;84;21057;-66
2021/09/08 09:32:53;;;;;;;6.40;5.10;;;;;;;20.63;45.01;95442.95;1671569;84;21045;-60
2021/09/08 09:35:23;;;;;;;5.47;4.55;;;;;;;20.85;45.00;95440.36;1651660;84;21011;-61
2021/09/08 09:37:53;;;;;;;5.83;4.87;;;;;;;21.08;43.50;95442.83;1657443;84;22209;-66
2021/09/08 09:40:27;;;;;;;6.62;4.45;;;;;;;21.33;43.21;95442.61;1668915;83;21429;-60
2021/09/08 09:42:56;;;;;;;6.42;5.00;;;;;;;21.54;42.16;95434.20;1675899;83;21063;-61
2021/09/08 09:45:23;;;;;;;6.72;4.60;;;;;;;21.78;43.66;95435.98;1685297;83;21014;-62
2021/09/08 09:47:50;;;;;;;5.10;4.40;;;;;;;21.96;43.33;95426.52;1660777;82;21091;-64
2021/09/08 09:50:21;;;;;;;8.40;4.72;;;;;;;22.18;43.62;95417.54;1693190;83;21019;-62
2021/09/08 09:52:49;;;;;;;9.15;5.17;;;;;;;22.45;43.38;95419.64;1698226;83;21608;-61
2021/09/08 09:55:16;;;;;;;6.47;4.87;;;;;;;22.65;41.48;95423.61;1693053;83;21109;-63
2021/09/08 09:57:43;;;;;;;6.75;4.65;;;;;;;22.86;42.79;95421.33;1693461;83;21084;-63
2021/09/08 10:00:12;;;;;;;7.60;4.33;;;;;;;23.13;41.00;95412.13;1694741;83;21120;-61
2021/09/08 10:02:40;;;;;;;7.58;4.67;;;;;;;23.46;41.65;95411.44;1684543;83;21029;-63
2021/09/08 10:05:09;;;;;;;6.58;4.28;;;;;;;23.86;40.10;95406.59;1696020;83;21170;-64
2021/09/08 10:07:36;;;;;;;6.28;4.87;;;;;;;24.28;37.73;95409.70;1683297;81;21060;-62
2021/09/08 10:10:18;;;;;;;5.20;4.00;;;;;;;24.69;37.87;95407.65;1682850;83;21439;-64
2021/09/08 10:12:53;;;;;;;5.28;3.95;;;;;;;25.12;36.89;95406.40;1691723;83;21018;-60
2021/09/08 10:15:21;;;;;;;6.50;4.53;;;;;;;25.59;35.87;95406.31;1691185;83;21109;-65
2021/09/08 10:17:49;;;;;;;8.18;4.20;;;;;;;26.01;34.86;95400.70;1700157;83;21185;-64
2021/09/08 10:20:21;;;;;;;5.22;4.28;;;;;;;26.38;33.06;95400.71;1694076;83;21045;-62
2021/09/08 10:22:48;;;;;;;;;;;;;;;26.70;32.34;95398.73;1707793;83;21032;-61
2021/09/08 10:25:20;;;;;;;7.87;4.22;;;;;;;26.96;32.39;95396.75;1680400;83;20180;-63
2021/09/08 10:27:55;;;;;;;7.92;3.72;;;;;;;27.34;31.04;95401.64;1675965;83;21124;-60
2021/09/08 10:30:24;;;;;;;6.62;3.42;;;;;;;27.72;31.60;95396.70;1691458;83;21233;-61
2021/09/08 10:32:53;;;;;;;4.00;3.20;;;;;;;28.04;30.34;95395.94;1678938;83;21537;-62
2021/09/08 10:35:21;;;;;;;3.80;3.35;;;;;;;28.44;29.75;95401.64;1674144;84;21121;-62
2021/09/08 10:37:52;;;;;;;6.00;3.80;;;;;;;28.85;28.83;95396.05;1699155;83;21242;-61
2021/09/08 10:40:22;;;;;;;5.12;3.65;;;;;;;29.14;27.76;95394.17;1685736;83;20987;-59
2021/09/08 10:42:54;;;;;;;4.47;3.60;;;;;;;29.40;27.66;95396.09;1672939;83;21164;-64
2021/09/08 10:45:26;;;;;;;10.00;4.37;;;;;;;29.79;27.13;95392.99;1686561;83;21010;-64
2021/09/08 10:47:56;;;;;;;4.47;3.22;;;;;;;30.05;28.12;95391.49;1678343;83;21168;-62
2021/09/08 10:50:42;;;;;;;4.22;3.17;;;;;;;30.38;26.83;95390.52;1692129;83;20996;-63
2021/09/08 10:53:28;;;;;;;9.23;4.20;;;;;;;30.68;27.08;95384.95;1665295;82;21132;-64
2021/09/08 10:55:55;;;;;;;5.42;3.58;;;;;;;31.02;26.55;95383.23;1687913;83;21811;-61
2021/09/08 10:58:22;;;;;;;4.20;3.45;;;;;;;31.35;25.82;95388.58;1699118;82;21128;-65
2021/09/08 11:00:50;;;;;;;7.97;3.70;;;;;;;31.56;24.66;95383.45;1684546;83;21533;-60
2021/09/08 11:03:22;;;;;;;6.62;3.62;;;;;;;31.75;24.73;95380.25;1690641;83;21069;-62
2021/09/08 11:06:00;;;;;;;12.37;4.62;;;;;;;31.88;24.40;95380.78;1691315;83;21156;-60
2021/09/08 11:08:34;;;;;;;3.98;3.12;;;;;;;31.80;23.71;95377.86;1651209;83;21066;-61
2021/09/08 11:11:17;;;;;;;3.65;3.25;;;;;;;31.92;25.10;95376.88;1652226;84;21109;-63
2021/09/08 11:13:54;;;;;;;4.97;3.50;;;;;;;32.17;23.96;95375.70;1697925;83;21046;-61
2021/09/08 11:16:31;;;;;;;5.25;3.60;;;;;;;32.40;24.48;95369.92;1681366;83;21038;-65
2021/09/08 11:19:02;;;;;;;5.92;3.58;;;;;;;32.67;23.29;95367.41;1668338;83;21306;-64
2021/09/08 11:21:32;;;;;;;3.60;3.12;;;;;;;32.95;22.51;95367.75;1689123;83;21108;-67
2021/09/08 11:24:08;;;;;;;3.55;3.15;;;;;;;33.25;23.59;95358.99;1684966;83;21045;-65
2021/09/08 11:26:39;;;;;;;4.53;2.87;;;;;;;33.53;23.91;95357.16;1681313;83;21113;-60
2021/09/08 11:29:12;;;;;;;7.80;3.37;;;;;;;33.74;22.98;95362.60;1684347;83;21050;-62
2021/09/08 11:31:43;;;;;;;3.72;3.10;;;;;;;33.92;22.02;95360.51;1680964;83;21159;-64